Time;durP1;ratioP1;P1;durP2;ratioP2;P2;SDS_P1;SDS_P2;PMS_P1;PMS_P2;Temp;Humidity;BMP_temperature;BMP_pressure;BME280_temperature;BME280_humidity;BME280_pressure;Samples;Min_cycle;Max_cycle;Signal;HPM_P1;HPM_P2
2023/11/29 00:02:07;;;;;;;12.23;8.37;;;;;;;1.08;100.00;98510.14;1454222;90;21838;-76
2023/11/29 00:04:35;;;;;;;15.37;10.00;;;;;;;1.17;100.00;98518.94;1458511;90;21774;-76
2023/11/29 00:07:01;;;;;;;13.00;8.90;;;;;;;1.15;100.00;98515.63;1456421;90;22104;-76
2023/11/29 00:09:27;;;;;;;14.27;10.53;;;;;;;1.13;100.00;98509.75;1450898;90;21778;-76
2023/11/29 00:11:54;;;;;;;13.53;9.77;;;;;;;1.11;100.00;98512.96;1456820;90;21756;-77
2023/11/29 00:14:20;;;;;;;16.97;11.27;;;;;;;1.10;100.00;98520.44;1454069;90;22013;-77
2023/11/29 00:16:46;;;;;;;19.07;12.33;;;;;;;1.10;100.00;98520.44;1458217;90;21779;-76
2023/11/29 00:19:12;;;;;;;16.43;10.60;;;;;;;1.05;100.00;98525.22;1455972;90;22887;-78
2023/11/29 00:21:43;;;;;;;15.43;10.20;;;;;;;0.88;100.00;98535.31;1461224;90;21712;-77
2023/11/29 00:24:09;;;;;;;14.50;11.12;;;;;;;0.88;100.00;98535.31;1456533;90;21705;-78
2023/11/29 00:26:36;;;;;;;23.57;11.53;;;;;;;0.86;100.00;98539.00;1452687;90;22322;-77
2023/11/29 00:29:02;;;;;;;14.47;9.67;;;;;;;0.82;100.00;98544.97;1454586;90;21741;-77
2023/11/29 00:31:29;;;;;;;17.67;10.23;;;;;;;0.77;100.00;98551.03;1455012;90;22377;-77
2023/11/29 00:33:55;;;;;;;15.43;10.83;;;;;;;0.71;100.00;98567.67;1455499;90;21761;-76
2023/11/29 00:36:21;;;;;;;13.13;8.93;;;;;;;0.71;100.00;98567.67;1447364;89;21786;-77
2023/11/29 00:38:47;;;;;;;16.90;10.03;;;;;;;0.73;100.00;98574.41;1428836;90;21794;-76
2023/11/29 00:41:13;;;;;;;15.63;10.43;;;;;;;0.73;100.00;98580.91;1430951;90;21765;-76
2023/11/29 00:43:40;;;;;;;15.70;9.27;;;;;;;0.70;100.00;98586.38;1432251;90;21724;-76
2023/11/29 00:46:06;;;;;;;17.77;10.63;;;;;;;0.71;100.00;98593.23;1453308;90;21377;-77
2023/11/29 00:48:32;;;;;;;18.17;11.53;;;;;;;0.71;100.00;98597.62;1448180;90;21662;-78
2023/11/29 00:50:59;;;;;;;15.10;10.70;;;;;;;0.71;100.00;98607.55;1452319;90;21626;-76
2023/11/29 00:53:25;;;;;;;14.63;9.90;;;;;;;0.70;100.00;98616.80;1450529;90;21715;-76
2023/11/29 00:55:51;;;;;;;14.90;9.77;;;;;;;0.66;100.00;98615.77;1450968;90;21679;-76
2023/11/29 00:58:18;;;;;;;13.67;9.37;;;;;;;0.69;100.00;98622.47;1453919;89;21713;-76
2023/11/29 01:00:44;;;;;;;17.33;10.37;;;;;;;0.66;100.00;98624.03;1445992;90;22492;-78
2023/11/29 01:03:10;;;;;;;17.63;10.77;;;;;;;0.64;100.00;98623.35;1452080;90;22612;-77
2023/11/29 01:05:37;;;;;;;18.60;12.10;;;;;;;0.57;100.00;98620.90;1461494;90;21747;-77
2023/11/29 01:08:03;;;;;;;16.10;10.70;;;;;;;0.55;100.00;98616.31;1453902;90;21555;-76
2023/11/29 01:10:29;;;;;;;17.00;10.73;;;;;;;0.56;100.00;98628.37;1451324;90;22791;-77
2023/11/29 01:12:55;;;;;;;18.77;10.20;;;;;;;0.54;100.00;98632.88;1447693;90;21693;-76
2023/11/29 01:15:21;;;;;;;21.77;11.90;;;;;;;0.51;100.00;98652.66;1451604;90;21898;-76
2023/11/29 01:17:47;;;;;;;17.87;10.57;;;;;;;0.51;100.00;98652.66;1451408;90;21775;-76
2023/11/29 01:20:14;;;;;;;22.13;11.23;;;;;;;0.48;100.00;98651.61;1459520;90;21719;-77
2023/11/29 01:22:40;;;;;;;18.67;12.50;;;;;;;0.35;100.00;98642.22;1454906;90;21608;-77
2023/11/29 01:25:07;;;;;;;16.67;10.57;;;;;;;0.28;100.00;98644.95;1457895;90;21644;-76
2023/11/29 01:27:33;;;;;;;20.80;13.33;;;;;;;0.26;100.00;98644.28;1454394;90;21584;-76
2023/11/29 01:30:02;;;;;;;21.50;13.00;;;;;;;0.27;100.00;98649.83;1449805;90;21866;-75
2023/11/29 01:32:28;;;;;;;24.03;13.63;;;;;;;0.20;100.00;98664.27;1452612;90;21822;-76
2023/11/29 01:34:54;;;;;;;22.73;12.47;;;;;;;0.20;100.00;98656.47;1451057;90;22198;-75
2023/11/29 01:37:20;;;;;;;20.63;12.47;;;;;;;0.14;100.00;98658.27;1452999;90;23018;-75
2023/11/29 01:39:48;;;;;;;22.17;12.67;;;;;;;0.15;100.00;98674.25;1444122;90;21869;-76
2023/11/29 01:42:14;;;;;;;19.90;11.80;;;;;;;0.17;100.00;98691.84;1456718;90;21846;-76
2023/11/29 01:44:40;;;;;;;21.77;13.17;;;;;;;0.17;100.00;98691.84;1451209;90;21632;-76
2023/11/29 01:47:11;;;;;;;22.87;13.67;;;;;;;0.20;100.00;98696.34;1455266;90;21741;-76
2023/11/29 01:49:37;;;;;;;15.40;9.65;;;;;;;0.16;100.00;98698.00;1455690;90;21620;-76
2023/11/29 01:52:05;;;;;;;22.60;12.33;;;;;;;0.19;100.00;98697.75;1452534;90;22234;-76
2023/11/29 01:54:31;;;;;;;23.53;12.87;;;;;;;0.22;100.00;98707.91;1451709;90;22839;-76
2023/11/29 01:56:57;;;;;;;21.57;13.50;;;;;;;0.15;100.00;98721.08;1447274;90;21628;-77
2023/11/29 01:59:23;;;;;;;24.00;14.17;;;;;;;0.18;100.00;98729.94;1456659;90;22533;-76
2023/11/29 02:01:50;;;;;;;22.70;13.50;;;;;;;0.17;100.00;98743.42;1450896;90;21638;-75
2023/11/29 02:04:17;;;;;;;25.23;14.63;;;;;;;0.12;100.00;98749.94;1460097;90;21860;-76
2023/11/29 02:06:43;;;;;;;24.57;13.07;;;;;;;0.12;100.00;98753.84;1458913;90;23081;-78
2023/11/29 02:09:09;;;;;;;23.90;14.10;;;;;;;0.15;100.00;98762.70;1458174;90;21711;-76
2023/11/29 02:11:40;;;;;;;25.20;14.40;;;;;;;0.18;100.00;98778.89;1453295;90;21527;-76
2023/11/29 02:14:06;;;;;;;23.87;13.70;;;;;;;0.17;100.00;98785.50;1458367;90;21615;-76
2023/11/29 02:16:34;;;;;;;25.00;13.90;;;;;;;0.16;100.00;98774.75;1432711;90;21414;-75
2023/11/29 02:19:00;;;;;;;23.77;13.77;;;;;;;0.13;100.00;98771.09;1464475;90;21691;-77
2023/11/29 02:21:26;;;;;;;24.17;13.07;;;;;;;0.18;100.00;98772.86;1455799;90;23064;-76
2023/11/29 02:24:17;;;;;;;22.63;14.10;;;;;;;0.16;100.00;98778.66;1460001;89;21673;-77
2023/11/29 02:26:43;;;;;;;25.32;14.90;;;;;;;0.15;100.00;98786.94;1451788;89;22209;-77
2023/11/29 02:29:10;;;;;;;20.70;13.40;;;;;;;0.16;100.00;98800.29;1450821;90;21339;-78
2023/11/29 02:31:36;;;;;;;20.53;12.40;;;;;;;0.14;100.00;98813.88;1453123;90;21657;-77
2023/11/29 02:34:03;;;;;;;22.07;12.67;;;;;;;0.15;100.00;98821.23;1443306;90;21772;-75
2023/11/29 02:36:30;;;;;;;22.77;13.07;;;;;;;0.16;100.00;98828.91;1454647;90;21638;-76
2023/11/29 02:38:57;;;;;;;23.47;13.70;;;;;;;0.12;100.00;98834.02;1453892;90;21750;-77
2023/11/29 02:41:23;;;;;;;22.30;13.60;;;;;;;0.08;100.00;98846.89;1447977;89;21795;-78
2023/11/29 02:43:51;;;;;;;21.03;12.93;;;;;;;0.09;100.00;98846.44;1441063;90;21769;-76
2023/11/29 02:46:17;;;;;;;22.27;13.47;;;;;;;0.09;100.00;98849.86;1449380;90;21898;-76
2023/11/29 02:48:43;;;;;;;24.67;11.17;;;;;;;0.13;100.00;98855.17;1451713;90;21622;-77
2023/11/29 02:51:09;;;;;;;25.67;14.20;;;;;;;0.16;100.00;98851.50;1454193;90;21786;-77
2023/11/29 02:53:35;;;;;;;23.67;13.37;;;;;;;0.18;100.00;98856.95;1453416;90;21637;-77
2023/11/29 02:56:02;;;;;;;24.87;14.40;;;;;;;0.17;100.00;98864.86;1453814;90;21699;-76
2023/11/29 02:58:28;;;;;;;23.83;15.40;;;;;;;0.19;100.00;98876.80;1438392;90;21624;-76
2023/11/29 03:00:54;;;;;;;24.07;14.40;;;;;;;0.24;100.00;98880.84;1456875;90;21629;-77
2023/11/29 03:03:21;;;;;;;24.67;13.77;;;;;;;0.25;100.00;98882.00;1453833;90;21451;-77
2023/11/29 03:05:48;;;;;;;27.77;16.07;;;;;;;0.27;100.00;98880.11;1453254;90;21720;-76
2023/11/29 03:08:15;;;;;;;22.33;13.67;;;;;;;0.25;100.00;98872.89;1465826;90;22640;-77
2023/11/29 03:10:41;;;;;;;22.50;13.03;;;;;;;0.22;100.00;98880.94;1451004;90;21822;-76
2023/11/29 03:13:07;;;;;;;25.73;14.13;;;;;;;0.17;100.00;98879.16;1452149;90;21911;-76
2023/11/29 03:15:33;;;;;;;19.83;12.53;;;;;;;0.16;100.00;98878.82;1451802;90;21695;-75
2023/11/29 03:17:59;;;;;;;22.60;13.27;;;;;;;0.15;100.00;98887.58;1454113;89;23306;-76
2023/11/29 03:20:26;;;;;;;24.10;14.47;;;;;;;0.14;100.00;98884.12;1457016;89;22868;-75
2023/11/29 03:22:52;;;;;;;32.00;15.47;;;;;;;0.09;100.00;98890.66;1452207;90;21829;-76
2023/11/29 03:25:18;;;;;;;21.67;11.83;;;;;;;0.03;100.00;98884.61;1454392;90;22633;-75
2023/11/29 03:27:44;;;;;;;22.67;13.43;;;;;;;-0.01;100.00;98890.05;1447459;90;21579;-76
2023/11/29 03:30:12;;;;;;;20.67;13.00;;;;;;;0.01;100.00;98898.23;1439310;90;22375;-77
2023/11/29 03:32:39;;;;;;;19.60;11.90;;;;;;;-0.06;100.00;98905.65;1454687;90;21749;-77
2023/11/29 03:35:06;;;;;;;22.67;12.17;;;;;;;-0.04;100.00;98909.80;1448896;90;21833;-77
2023/11/29 03:37:32;;;;;;;21.70;13.60;;;;;;;-0.12;100.00;98918.65;1453775;89;21667;-76
2023/11/29 03:39:58;;;;;;;25.73;13.13;;;;;;;-0.09;100.00;98926.22;1444182;90;21566;-76
2023/11/29 03:42:24;;;;;;;25.23;12.97;;;;;;;-0.18;100.00;98925.62;1452454;90;22485;-78
2023/11/29 03:44:51;;;;;;;25.13;13.00;;;;;;;-0.13;100.00;98936.51;1453880;90;21856;-76
2023/11/29 03:47:17;;;;;;;21.00;12.70;;;;;;;-0.22;100.00;98942.41;1456885;90;21717;-77
2023/11/29 03:49:44;;;;;;;23.33;13.13;;;;;;;-0.16;100.00;98939.34;1460347;89;22448;-76
2023/11/29 03:52:10;;;;;;;20.03;12.47;;;;;;;-0.21;100.00;98946.66;1437384;90;21499;-76
2023/11/29 03:54:37;;;;;;;21.50;13.00;;;;;;;-0.18;100.00;98950.80;1462511;90;22404;-76
2023/11/29 03:57:03;;;;;;;21.13;11.93;;;;;;;-0.25;100.00;98959.55;1455541;89;21630;-77
2023/11/29 03:59:29;;;;;;;22.07;13.07;;;;;;;-0.22;100.00;98971.02;1452532;90;21637;-76
2023/11/29 04:01:56;;;;;;;20.90;12.60;;;;;;;-0.21;100.00;98980.94;1453320;90;21690;-77
2023/11/29 04:04:22;;;;;;;21.90;12.60;;;;;;;-0.21;100.00;98978.34;1455335;90;21795;-76
2023/11/29 04:06:48;;;;;;;26.87;14.60;;;;;;;-0.25;100.00;98977.74;1434002;90;21466;-78
2023/11/29 04:09:14;;;;;;;21.47;13.20;;;;;;;-0.27;100.00;98984.82;1435412;90;22624;-77
2023/11/29 04:11:42;;;;;;;22.83;12.17;;;;;;;-0.29;100.00;98988.85;1454371;90;22058;-76
2023/11/29 04:14:08;;;;;;;21.33;11.47;;;;;;;-0.31;100.00;98992.50;1438598;90;21771;-76
2023/11/29 04:16:35;;;;;;;25.67;12.90;;;;;;;-0.29;100.00;98996.66;1446736;90;21795;-76
2023/11/29 04:19:01;;;;;;;21.13;13.03;;;;;;;-0.25;100.00;99006.34;1457126;90;21626;-76
2023/11/29 04:21:34;;;;;;;19.00;11.40;;;;;;;-0.23;100.00;99001.87;1449156;90;22408;-76
2023/11/29 04:24:01;;;;;;;21.37;11.83;;;;;;;-0.23;100.00;99005.77;1457567;90;21555;-77
2023/11/29 04:26:31;;;;;;;18.53;11.90;;;;;;;-0.25;100.00;99011.55;1451021;90;21564;-76
2023/11/29 04:28:59;;;;;;;23.57;12.80;;;;;;;-0.26;100.00;99019.83;1450051;90;21638;-76
2023/11/29 04:31:26;;;;;;;19.27;11.67;;;;;;;-0.26;100.00;99018.97;1456429;90;22779;-76
2023/11/29 04:33:52;;;;;;;25.87;14.23;;;;;;;-0.22;100.00;99024.80;1455956;90;21573;-77
2023/11/29 04:36:19;;;;;;;19.30;11.50;;;;;;;-0.24;100.00;99028.80;1454063;90;21648;-76
2023/11/29 04:38:46;;;;;;;23.97;14.13;;;;;;;-0.23;100.00;99044.77;1450661;90;22566;-76
2023/11/29 04:41:13;;;;;;;22.60;14.53;;;;;;;-0.21;100.00;99048.07;1455508;90;21609;-76
2023/11/29 04:43:39;;;;;;;18.53;12.07;;;;;;;-0.21;100.00;99046.77;1452927;90;21691;-77
2023/11/29 04:46:05;;;;;;;20.37;11.23;;;;;;;-0.23;100.00;99044.77;1430626;90;21655;-77
2023/11/29 04:48:31;;;;;;;22.27;12.87;;;;;;;-0.27;100.00;99048.52;1456065;90;22712;-76
2023/11/29 04:50:57;;;;;;;19.63;12.17;;;;;;;-0.25;100.00;99045.34;1443643;90;21581;-76
2023/11/29 04:53:24;;;;;;;17.73;11.47;;;;;;;-0.22;100.00;99047.72;1448799;90;22115;-76
2023/11/29 04:55:52;;;;;;;20.20;11.13;;;;;;;-0.28;100.00;99057.27;1462934;90;21679;-76
2023/11/29 04:58:22;;;;;;;17.17;9.83;;;;;;;-0.34;100.00;99061.16;1460823;90;21563;-77
2023/11/29 05:00:48;;;;;;;17.20;8.53;;;;;;;-0.34;100.00;99060.33;1458238;90;21772;-76
2023/11/29 05:03:16;;;;;;;17.17;10.63;;;;;;;-0.44;100.00;99064.52;1454994;89;21659;-76
2023/11/29 05:05:43;;;;;;;16.30;9.30;;;;;;;-0.41;100.00;99056.02;1454863;90;21631;-76
2023/11/29 05:08:09;;;;;;;16.40;10.17;;;;;;;-0.39;100.00;99059.83;1451517;90;21643;-75
2023/11/29 05:10:37;;;;;;;19.00;9.63;;;;;;;-0.43;100.00;99070.07;1455798;90;22561;-76
2023/11/29 05:13:05;;;;;;;17.57;8.73;;;;;;;-0.49;100.00;99072.20;1449878;90;21785;-76
2023/11/29 05:15:35;;;;;;;17.33;9.57;;;;;;;-0.44;100.00;99074.92;1463304;90;21571;-76
2023/11/29 05:18:03;;;;;;;15.40;8.57;;;;;;;-0.43;100.00;99076.13;1453502;90;21881;-76
2023/11/29 05:20:29;;;;;;;13.40;7.73;;;;;;;-0.45;100.00;99079.30;1457271;90;21636;-76
2023/11/29 05:22:56;;;;;;;10.60;6.60;;;;;;;-0.53;100.00;99075.94;1460964;90;21788;-76
2023/11/29 05:25:23;;;;;;;13.90;7.43;;;;;;;-0.63;100.00;99078.85;1450191;90;21689;-78
2023/11/29 05:27:50;;;;;;;11.13;6.87;;;;;;;-0.61;100.00;99086.05;1457186;90;21625;-77
2023/11/29 05:30:17;;;;;;;16.43;7.83;;;;;;;-0.57;100.00;99087.98;1454711;90;21898;-76
2023/11/29 05:32:44;;;;;;;12.87;7.10;;;;;;;-0.58;100.00;99092.32;1455986;90;21621;-76
2023/11/29 05:35:10;;;;;;;12.40;7.30;;;;;;;-0.59;100.00;99095.88;1447604;90;21645;-76
2023/11/29 05:37:36;;;;;;;15.10;8.10;;;;;;;-0.60;100.00;99099.42;1454828;90;22383;-76
2023/11/29 05:40:08;;;;;;;12.00;6.63;;;;;;;-0.57;100.00;99108.30;1450668;90;21621;-76
2023/11/29 05:42:31;;;;;;;10.47;6.63;;;;;;;-0.59;100.00;99111.47;1454412;90;22143;-77
2023/11/29 05:44:57;;;;;;;13.50;6.93;;;;;;;-0.63;100.00;99112.64;1446814;90;21644;-76
2023/11/29 05:47:23;;;;;;;15.57;8.93;;;;;;;-0.64;100.00;99117.92;1453279;90;21630;-75
2023/11/29 05:49:49;;;;;;;13.13;7.13;;;;;;;-0.59;100.00;99121.86;1458097;90;21602;-76
2023/11/29 05:52:18;;;;;;;11.73;6.10;;;;;;;-0.67;100.00;99122.04;1454645;90;21913;-76
2023/11/29 05:54:44;;;;;;;11.43;6.63;;;;;;;-0.71;100.00;99134.42;1450129;90;21873;-76
2023/11/29 05:57:10;;;;;;;13.47;7.43;;;;;;;-0.66;100.00;99136.23;1447043;90;22555;-76
2023/11/29 05:59:37;;;;;;;12.63;7.30;;;;;;;-0.66;100.00;99145.34;1452973;89;21821;-75
2023/11/29 06:02:05;;;;;;;11.67;7.03;;;;;;;-0.72;100.00;99149.63;1456544;90;21621;-76
2023/11/29 06:04:34;;;;;;;14.30;7.43;;;;;;;-0.63;100.00;99158.11;1449065;90;21708;-77
2023/11/29 06:07:01;;;;;;;11.77;6.00;;;;;;;-0.70;100.00;99160.77;1448735;90;22472;-77
2023/11/29 06:09:28;;;;;;;12.70;7.07;;;;;;;-0.73;100.00;99166.17;1456326;90;22529;-77
2023/11/29 06:11:55;;;;;;;13.70;6.57;;;;;;;-0.77;100.00;99168.63;1453505;90;21599;-78
2023/11/29 06:14:27;;;;;;;13.90;7.27;;;;;;;-0.81;100.00;99174.96;1449392;90;21584;-78
2023/11/29 06:16:54;;;;;;;10.23;6.27;;;;;;;-0.86;100.00;99173.14;1455621;90;22671;-76
2023/11/29 06:19:20;;;;;;;12.83;6.77;;;;;;;-0.78;100.00;99178.64;1453767;90;21686;-77
2023/11/29 06:21:46;;;;;;;12.57;6.30;;;;;;;-0.92;100.00;99187.41;1452820;90;21458;-77
2023/11/29 06:24:13;;;;;;;12.17;6.67;;;;;;;-0.94;100.00;99194.00;1447221;90;21623;-76
2023/11/29 06:26:40;;;;;;;12.67;6.20;;;;;;;-0.88;100.00;99201.02;1445171;90;21598;-77
2023/11/29 06:29:11;;;;;;;11.90;6.43;;;;;;;-0.86;100.00;99214.70;1456328;90;21684;-77
2023/11/29 06:31:37;;;;;;;15.43;8.35;;;;;;;-0.91;100.00;99218.46;1461557;90;21601;-79
2023/11/29 06:34:07;;;;;;;12.23;6.87;;;;;;;-0.93;100.00;99222.09;1460090;90;21354;-77
2023/11/29 06:36:34;;;;;;;10.10;5.37;;;;;;;-0.91;100.00;99214.56;1452912;90;21645;-77
2023/11/29 06:39:01;;;;;;;10.93;6.77;;;;;;;-0.94;100.00;99218.67;1450982;90;22616;-75
2023/11/29 06:41:27;;;;;;;13.00;6.33;;;;;;;-0.89;100.00;99218.81;1451026;90;21660;-78
2023/11/29 06:43:54;;;;;;;13.70;8.23;;;;;;;-0.92;100.00;99220.70;1454539;90;21721;-77
2023/11/29 06:46:22;;;;;;;8.83;5.90;;;;;;;-0.89;100.00;99233.95;1455284;90;21505;-77
2023/11/29 06:48:48;;;;;;;11.03;6.10;;;;;;;-0.93;100.00;99230.71;1461263;90;21762;-76
2023/11/29 06:51:14;;;;;;;10.53;6.17;;;;;;;-0.92;100.00;99234.99;1442625;90;21583;-78
2023/11/29 06:53:40;;;;;;;15.37;7.43;;;;;;;-0.89;100.00;99246.09;1454977;90;21529;-76
2023/11/29 06:56:08;;;;;;;9.87;5.87;;;;;;;-0.94;100.00;99245.94;1452260;90;22518;-76
2023/11/29 06:58:34;;;;;;;11.43;6.60;;;;;;;-0.91;100.00;99245.73;1432223;90;21891;-78
2023/11/29 07:01:01;;;;;;;10.80;5.90;;;;;;;-0.89;100.00;99249.55;1448944;90;21611;-76
2023/11/29 07:03:27;;;;;;;12.87;6.53;;;;;;;-0.87;100.00;99256.74;1458650;90;22317;-76
2023/11/29 07:05:57;;;;;;;13.77;5.77;;;;;;;-0.89;100.00;99258.63;1447909;90;21691;-77
2023/11/29 07:08:23;;;;;;;12.50;6.67;;;;;;;-0.85;100.00;99272.24;1464759;90;21637;-77
2023/11/29 07:10:51;;;;;;;11.33;6.73;;;;;;;-0.86;100.00;99274.02;1455616;90;21659;-76
2023/11/29 07:13:17;;;;;;;11.33;6.20;;;;;;;-0.84;100.00;99276.02;1450302;89;21677;-76
2023/11/29 07:15:43;;;;;;;9.73;5.10;;;;;;;-0.82;100.00;99278.05;1452450;89;22567;-75
2023/11/29 07:18:09;;;;;;;10.77;5.40;;;;;;;-0.93;100.00;99289.16;1442271;90;21479;-76
2023/11/29 07:20:37;;;;;;;11.93;6.10;;;;;;;-0.89;100.00;99288.95;1451378;89;21775;-75
2023/11/29 07:23:03;;;;;;;9.60;5.60;;;;;;;-0.92;100.00;99291.31;1451238;90;21584;-75
2023/11/29 07:25:30;;;;;;;11.57;6.50;;;;;;;-0.97;100.00;99294.20;1453847;90;21638;-75
2023/11/29 07:27:56;;;;;;;14.70;7.33;;;;;;;-0.88;100.00;99301.02;1455765;90;22532;-76
2023/11/29 07:30:22;;;;;;;12.57;5.90;;;;;;;-0.85;100.00;99299.52;1454213;90;21681;-75
2023/11/29 07:32:48;;;;;;;13.10;6.63;;;;;;;-0.91;100.00;99304.18;1446445;90;21617;-75
2023/11/29 07:35:15;;;;;;;12.00;6.37;;;;;;;-0.91;100.00;99304.18;1451134;90;22204;-76
2023/11/29 07:37:42;;;;;;;10.13;5.47;;;;;;;-0.85;100.00;99311.20;1457510;90;21594;-76
2023/11/29 07:40:10;;;;;;;13.20;6.33;;;;;;;-0.80;100.00;99314.34;1458604;90;22585;-77
2023/11/29 07:42:36;;;;;;;13.97;6.63;;;;;;;-0.85;100.00;99326.32;1452136;90;21552;-77
2023/11/29 07:45:03;;;;;;;12.50;5.97;;;;;;;-0.94;100.00;99338.16;1459511;90;22485;-76
2023/11/29 07:47:29;;;;;;;13.87;6.40;;;;;;;-0.93;100.00;99339.80;1456398;90;22770;-77
2023/11/29 07:49:55;;;;;;;14.20;6.63;;;;;;;-0.85;100.00;99335.89;1449411;90;21514;-76
2023/11/29 07:52:21;;;;;;;15.37;7.63;;;;;;;-0.79;100.00;99351.89;1449227;90;21838;-77
2023/11/29 07:54:48;;;;;;;12.33;6.67;;;;;;;-0.79;100.00;99351.89;1449438;90;22043;-75
2023/11/29 07:57:15;;;;;;;10.13;5.27;;;;;;;-0.86;100.00;99353.69;1455050;90;21638;-75
2023/11/29 07:59:41;;;;;;;11.50;5.20;;;;;;;-0.80;100.00;99368.89;1455935;90;21864;-75
2023/11/29 08:02:08;;;;;;;18.80;7.40;;;;;;;-0.88;100.00;99356.88;1457156;90;21615;-75
2023/11/29 08:04:35;;;;;;;13.90;7.57;;;;;;;-0.77;100.00;99365.62;1456657;89;21556;-76
2023/11/29 08:07:01;;;;;;;11.53;5.87;;;;;;;-0.80;100.00;99368.89;1454414;90;21504;-75
2023/11/29 08:09:27;;;;;;;10.97;6.43;;;;;;;-0.81;100.00;99373.70;1457563;90;21564;-75
2023/11/29 08:11:54;;;;;;;12.20;6.37;;;;;;;-0.78;100.00;99378.70;1452716;90;21624;-75
2023/11/29 08:14:20;;;;;;;16.80;7.30;;;;;;;-0.79;100.00;99388.27;1453250;90;21711;-76
2023/11/29 08:16:46;;;;;;;16.53;7.47;;;;;;;-0.83;100.00;99389.88;1450153;90;21551;-75
2023/11/29 08:19:12;;;;;;;18.67;8.73;;;;;;;-0.81;100.00;99394.49;1455550;90;21705;-76
2023/11/29 08:21:39;;;;;;;13.17;7.10;;;;;;;-0.79;100.00;99405.15;1451297;89;21695;-74
2023/11/29 08:24:05;;;;;;;18.53;8.33;;;;;;;-0.93;100.00;99408.64;1448270;90;21601;-75
2023/11/29 08:26:31;;;;;;;13.80;7.20;;;;;;;-0.94;100.00;99402.27;1457398;90;21479;-79
2023/11/29 08:28:58;;;;;;;19.33;9.83;;;;;;;-0.97;100.00;99405.89;1453704;90;22757;-76
2023/11/29 08:31:24;;;;;;;16.77;8.27;;;;;;;-0.96;100.00;99413.21;1454350;90;21569;-76
2023/11/29 08:33:51;;;;;;;16.37;8.33;;;;;;;-0.96;100.00;99417.94;1457368;90;21770;-76
2023/11/29 08:36:17;;;;;;;17.17;9.63;;;;;;;-0.93;100.00;99424.70;1456365;90;21642;-76
2023/11/29 08:38:43;;;;;;;20.07;8.90;;;;;;;-0.87;100.00;99416.98;1452921;90;21765;-76
2023/11/29 08:41:10;;;;;;;16.07;8.47;;;;;;;-0.91;100.00;99430.64;1451033;90;21676;-76
2023/11/29 08:43:36;;;;;;;16.83;8.63;;;;;;;-0.86;100.00;99434.22;1450563;90;21636;-77
2023/11/29 08:46:03;;;;;;;21.87;9.23;;;;;;;-0.83;100.00;99434.05;1454593;90;21735;-75
2023/11/29 08:48:30;;;;;;;17.33;7.87;;;;;;;-0.85;100.00;99438.03;1450695;90;21598;-76
2023/11/29 08:50:56;;;;;;;15.53;8.60;;;;;;;-0.80;100.00;99440.34;1454805;90;21624;-75
2023/11/29 08:53:23;;;;;;;14.53;8.10;;;;;;;-0.84;100.00;99446.66;1420463;90;22427;-76
2023/11/29 08:55:49;;;;;;;16.93;8.77;;;;;;;-0.94;100.00;99447.25;1451240;90;21444;-77
2023/11/29 08:58:15;;;;;;;16.70;8.47;;;;;;;-0.83;100.00;99444.09;1454310;90;21645;-76
2023/11/29 09:00:41;;;;;;;14.50;7.33;;;;;;;-0.92;100.00;99444.09;1453722;90;21620;-76
2023/11/29 09:03:10;;;;;;;18.07;7.50;;;;;;;-0.82;100.00;99453.42;1453038;90;21608;-77
2023/11/29 09:05:36;;;;;;;15.47;8.17;;;;;;;-0.69;100.00;99461.27;1457304;90;21517;-76
2023/11/29 09:08:03;;;;;;;15.00;8.03;;;;;;;-0.70;100.00;99458.28;1457086;90;21778;-77
2023/11/29 09:10:29;;;;;;;18.70;9.73;;;;;;;-0.65;100.00;99469.22;1454550;90;21577;-76
2023/11/29 09:12:55;;;;;;;21.57;9.63;;;;;;;-0.70;100.00;99465.61;1448895;90;21637;-77
2023/11/29 09:15:22;;;;;;;19.40;8.27;;;;;;;-0.66;100.00;99471.46;1453331;90;21694;-76
2023/11/29 09:17:48;;;;;;;18.00;9.23;;;;;;;-0.59;100.00;99479.69;1451721;90;21867;-76
2023/11/29 09:20:15;;;;;;;18.70;9.17;;;;;;;-0.58;100.00;99480.04;1442884;90;21581;-75
2023/11/29 09:22:42;;;;;;;17.60;8.83;;;;;;;-0.46;100.00;99479.26;1456501;90;21685;-75
2023/11/29 09:25:09;;;;;;;16.23;7.17;;;;;;;-0.52;100.00;99484.84;1456514;90;22612;-75
2023/11/29 09:27:36;;;;;;;19.97;8.80;;;;;;;-0.48;100.00;99491.05;1452551;90;21835;-75
2023/11/29 09:30:02;;;;;;;14.43;7.73;;;;;;;-0.52;100.00;99497.39;1460354;90;21614;-75
2023/11/29 09:32:32;;;;;;;19.27;9.37;;;;;;;-0.46;100.00;99500.88;1456646;90;21571;-74
2023/11/29 09:34:56;;;;;;;14.47;8.03;;;;;;;-0.53;100.00;99497.00;1453299;90;22198;-75
2023/11/29 09:37:22;;;;;;;18.20;8.80;;;;;;;-0.54;100.00;99500.55;1451303;90;21682;-76
2023/11/29 09:39:49;;;;;;;16.30;8.53;;;;;;;-0.53;100.00;99503.50;1453365;90;23178;-75
2023/11/29 09:42:16;;;;;;;13.43;7.10;;;;;;;-0.48;100.00;99500.14;1452982;90;21768;-76
2023/11/29 09:44:43;;;;;;;14.37;8.13;;;;;;;-0.39;100.00;99500.48;1362094;91;21572;-75
2023/11/29 09:47:10;;;;;;;18.47;8.30;;;;;;;-0.39;100.00;99504.38;1379112;90;21592;-75
2023/11/29 09:49:37;;;;;;;18.87;7.93;;;;;;;-0.41;100.00;99514.03;1379985;90;22432;-76
2023/11/29 09:52:04;;;;;;;13.77;7.10;;;;;;;-0.52;100.00;99509.53;1362634;91;21598;-76
2023/11/29 09:54:31;;;;;;;14.60;7.50;;;;;;;-0.40;100.00;99514.39;1378832;90;21585;-76
2023/11/29 09:56:57;;;;;;;23.03;8.00;;;;;;;-0.27;100.00;99503.56;1373442;90;22297;-76
2023/11/29 09:59:23;;;;;;;17.50;8.27;;;;;;;-0.22;100.00;99505.40;1380502;90;21566;-76
2023/11/29 10:01:51;;;;;;;14.73;6.10;;;;;;;-0.24;100.00;99507.26;1380621;90;21566;-76
2023/11/29 10:04:18;;;;;;;18.47;7.83;;;;;;;-0.24;100.00;99503.36;1365692;90;21695;-77
2023/11/29 10:06:44;;;;;;;26.10;8.97;;;;;;;-0.21;100.00;99509.66;1379850;90;21709;-76
2023/11/29 10:09:13;;;;;;;22.57;8.83;;;;;;;-0.20;100.00;99508.74;1386639;90;21602;-76
2023/11/29 10:11:43;;;;;;;16.43;8.20;;;;;;;-0.20;100.00;99507.44;1397867;90;21774;-76
2023/11/29 10:14:11;;;;;;;18.43;8.40;;;;;;;-0.18;100.00;99507.32;1376976;90;22638;-76
2023/11/29 10:16:37;;;;;;;24.20;9.33;;;;;;;-0.14;100.00;99524.41;1517955;90;21520;-76
2023/11/29 10:19:09;;;;;;;20.33;8.40;;;;;;;-0.14;100.00;99524.41;1385760;90;21747;-76
2023/11/29 10:21:41;;;;;;;20.73;9.30;;;;;;;-0.04;100.00;99521.07;1536422;90;21649;-76
2023/11/29 10:24:08;;;;;;;21.13;9.13;;;;;;;-0.10;100.00;99531.06;1470350;90;22006;-76
2023/11/29 10:26:34;;;;;;;16.00;7.13;;;;;;;-0.02;100.00;99524.41;1439604;90;22723;-76
2023/11/29 10:29:00;;;;;;;21.20;9.07;;;;;;;-0.05;100.00;99527.22;1449776;90;21750;-75
2023/11/29 10:31:27;;;;;;;12.33;6.40;;;;;;;0.08;100.00;99532.90;1454495;90;22162;-75
2023/11/29 10:33:54;;;;;;;25.50;7.77;;;;;;;0.03;100.00;99542.33;1445998;90;21943;-76
2023/11/29 10:36:21;;;;;;;21.67;7.57;;;;;;;0.03;100.00;99542.33;1440845;90;21783;-76
2023/11/29 10:38:58;;;;;;;15.23;6.93;;;;;;;0.12;100.00;99546.09;1429214;90;21723;-76
2023/11/29 10:41:27;;;;;;;12.17;6.63;;;;;;;0.12;100.00;99553.89;1454343;90;21951;-76
2023/11/29 10:43:58;;;;;;;14.33;8.10;;;;;;;-0.01;100.00;99552.08;1454691;89;21940;-75
2023/11/29 10:46:28;;;;;;;17.82;9.00;;;;;;;0.09;100.00;99557.53;1451686;90;21696;-75
2023/11/29 10:49:03;;;;;;;11.30;5.62;;;;;;;0.16;100.00;99561.84;1453974;90;21450;-75
2023/11/29 10:51:31;;;;;;;15.83;7.30;;;;;;;0.23;100.00;99565.69;1452624;90;21478;-75
2023/11/29 10:53:59;;;;;;;15.10;8.53;;;;;;;0.29;100.00;99574.86;1437867;90;21842;-75
2023/11/29 10:56:27;;;;;;;13.33;6.57;;;;;;;0.50;100.00;99581.70;1452202;90;22735;-75
2023/11/29 10:59:18;;;;;;;12.23;7.03;;;;;;;0.50;100.00;99581.70;1452403;90;21716;-74
2023/11/29 11:01:45;;;;;;;;;;;;;;;0.29;100.00;99582.22;1451170;90;21899;-75
2023/11/29 11:04:11;;;;;;;14.63;7.60;;;;;;;0.38;100.00;99589.41;1434862;90;20556;-75
2023/11/29 11:06:42;;;;;;;15.63;6.60;;;;;;;0.31;100.00;99587.31;1448739;90;22769;-74
2023/11/29 11:09:31;;;;;;;15.40;7.63;;;;;;;0.31;100.00;99587.31;1447422;90;22858;-74
2023/11/29 11:12:01;;;;;;;13.00;6.53;;;;;;;0.36;100.00;99591.27;1446976;90;21989;-74
2023/11/29 11:14:38;;;;;;;15.67;7.90;;;;;;;0.30;100.00;99589.55;1530820;90;21637;-74
2023/11/29 11:17:13;;;;;;;14.33;6.37;;;;;;;0.28;100.00;99598.75;1535884;90;21654;-75